sensor_id;sensor_type;location;lat;lon;timestamp;P1;durP1;ratioP1;P2;durP2;ratioP2
16015;SDS011;8112;53.592;10.184;2023-03-02T00:04:13;22.70;;;11.43;;
16015;SDS011;8112;53.592;10.184;2023-03-02T00:09:19;19.77;;;11.00;;
16015;SDS011;8112;53.592;10.184;2023-03-02T00:14:21;19.30;;;9.67;;
16015;SDS011;8112;53.592;10.184;2023-03-02T00:19:23;15.30;;;10.67;;
16015;SDS011;8112;53.592;10.184;2023-03-02T00:24:26;20.03;;;9.57;;
16015;SDS011;8112;53.592;10.184;2023-03-02T00:29:27;16.37;;;9.33;;
16015;SDS011;8112;53.592;10.184;2023-03-02T00:34:29;22.17;;;9.30;;
16015;SDS011;8112;53.592;10.184;2023-03-02T00:39:33;22.67;;;9.73;;
16015;SDS011;8112;53.592;10.184;2023-03-02T00:44:35;19.10;;;9.03;;
16015;SDS011;8112;53.592;10.184;2023-03-02T00:49:36;14.10;;;9.47;;
16015;SDS011;8112;53.592;10.184;2023-03-02T00:54:39;16.27;;;9.70;;
16015;SDS011;8112;53.592;10.184;2023-03-02T00:59:42;15.37;;;9.50;;
16015;SDS011;8112;53.592;10.184;2023-03-02T01:04:57;22.87;;;9.53;;
16015;SDS011;8112;53.592;10.184;2023-03-02T01:10:00;18.10;;;9.70;;
16015;SDS011;8112;53.592;10.184;2023-03-02T01:15:02;14.43;;;9.87;;
16015;SDS011;8112;53.592;10.184;2023-03-02T01:20:05;14.00;;;9.33;;
16015;SDS011;8112;53.592;10.184;2023-03-02T01:25:10;16.23;;;10.07;;
16015;SDS011;8112;53.592;10.184;2023-03-02T01:30:13;15.80;;;8.97;;
16015;SDS011;8112;53.592;10.184;2023-03-02T01:35:15;15.10;;;8.47;;
16015;SDS011;8112;53.592;10.184;2023-03-02T01:40:18;13.20;;;8.30;;
16015;SDS011;8112;53.592;10.184;2023-03-02T01:50:49;15.37;;;7.63;;
16015;SDS011;8112;53.592;10.184;2023-03-02T01:55:54;16.47;;;8.80;;
16015;SDS011;8112;53.592;10.184;2023-03-02T02:00:57;21.03;;;8.10;;
16015;SDS011;8112;53.592;10.184;2023-03-02T02:06:02;18.67;;;8.90;;
16015;SDS011;8112;53.592;10.184;2023-03-02T02:11:13;14.13;;;8.47;;
16015;SDS011;8112;53.592;10.184;2023-03-02T02:16:15;12.50;;;7.77;;
16015;SDS011;8112;53.592;10.184;2023-03-02T02:21:17;20.30;;;8.83;;
16015;SDS011;8112;53.592;10.184;2023-03-02T02:26:23;15.93;;;7.80;;
16015;SDS011;8112;53.592;10.184;2023-03-02T02:31:32;13.63;;;8.10;;
16015;SDS011;8112;53.592;10.184;2023-03-02T02:36:39;18.20;;;8.43;;
16015;SDS011;8112;53.592;10.184;2023-03-02T02:41:50;21.83;;;7.67;;
16015;SDS011;8112;53.592;10.184;2023-03-02T02:46:56;17.10;;;7.77;;
16015;SDS011;8112;53.592;10.184;2023-03-02T02:51:58;17.67;;;8.50;;
16015;SDS011;8112;53.592;10.184;2023-03-02T02:57:01;14.10;;;7.77;;
16015;SDS011;8112;53.592;10.184;2023-03-02T03:02:04;14.67;;;8.17;;
16015;SDS011;8112;53.592;10.184;2023-03-02T03:07:08;17.37;;;8.10;;
16015;SDS011;8112;53.592;10.184;2023-03-02T03:12:15;20.03;;;7.87;;
16015;SDS011;8112;53.592;10.184;2023-03-02T03:17:21;14.57;;;8.10;;
16015;SDS011;8112;53.592;10.184;2023-03-02T03:22:31;13.33;;;7.67;;
16015;SDS011;8112;53.592;10.184;2023-03-02T03:27:37;9.47;;;6.97;;
16015;SDS011;8112;53.592;10.184;2023-03-02T03:32:39;15.53;;;7.67;;
16015;SDS011;8112;53.592;10.184;2023-03-02T03:37:41;21.37;;;8.10;;
16015;SDS011;8112;53.592;10.184;2023-03-02T03:42:46;16.80;;;7.67;;
16015;SDS011;8112;53.592;10.184;2023-03-02T03:47:48;11.50;;;8.17;;
16015;SDS011;8112;53.592;10.184;2023-03-02T03:52:50;14.53;;;7.60;;
16015;SDS011;8112;53.592;10.184;2023-03-02T03:58:01;15.03;;;7.33;;
16015;SDS011;8112;53.592;10.184;2023-03-02T04:03:03;20.73;;;7.40;;
16015;SDS011;8112;53.592;10.184;2023-03-02T04:08:06;11.60;;;7.57;;
16015;SDS011;8112;53.592;10.184;2023-03-02T04:13:09;15.03;;;7.30;;
16015;SDS011;8112;53.592;10.184;2023-03-02T04:18:13;12.63;;;7.53;;
16015;SDS011;8112;53.592;10.184;2023-03-02T04:23:15;16.10;;;7.70;;
16015;SDS011;8112;53.592;10.184;2023-03-02T04:28:18;13.57;;;8.40;;
16015;SDS011;8112;53.592;10.184;2023-03-02T04:33:19;19.10;;;8.47;;
16015;SDS011;8112;53.592;10.184;2023-03-02T04:38:21;21.30;;;8.00;;
16015;SDS011;8112;53.592;10.184;2023-03-02T04:43:25;19.60;;;7.57;;
16015;SDS011;8112;53.592;10.184;2023-03-02T04:48:27;15.90;;;7.93;;
16015;SDS011;8112;53.592;10.184;2023-03-02T04:53:28;12.77;;;8.10;;
16015;SDS011;8112;53.592;10.184;2023-03-02T04:58:31;12.63;;;6.70;;
16015;SDS011;8112;53.592;10.184;2023-03-02T05:03:33;15.67;;;8.07;;
16015;SDS011;8112;53.592;10.184;2023-03-02T05:08:35;24.27;;;7.67;;
16015;SDS011;8112;53.592;10.184;2023-03-02T05:13:38;13.03;;;7.10;;
16015;SDS011;8112;53.592;10.184;2023-03-02T05:18:40;13.03;;;7.87;;
16015;SDS011;8112;53.592;10.184;2023-03-02T05:23:42;10.30;;;7.67;;
16015;SDS011;8112;53.592;10.184;2023-03-02T05:28:45;13.50;;;7.87;;
16015;SDS011;8112;53.592;10.184;2023-03-02T05:33:47;13.47;;;8.27;;
16015;SDS011;8112;53.592;10.184;2023-03-02T05:38:49;28.97;;;9.63;;
16015;SDS011;8112;53.592;10.184;2023-03-02T05:43:52;19.90;;;8.53;;
16015;SDS011;8112;53.592;10.184;2023-03-02T05:48:53;29.67;;;9.43;;
16015;SDS011;8112;53.592;10.184;2023-03-02T05:53:55;23.23;;;9.30;;
16015;SDS011;8112;53.592;10.184;2023-03-02T05:58:58;24.87;;;9.93;;
16015;SDS011;8112;53.592;10.184;2023-03-02T06:04:00;19.93;;;9.30;;
16015;SDS011;8112;53.592;10.184;2023-03-02T06:09:02;18.63;;;8.97;;
16015;SDS011;8112;53.592;10.184;2023-03-02T06:14:05;18.17;;;8.93;;
16015;SDS011;8112;53.592;10.184;2023-03-02T06:19:06;22.73;;;9.33;;
16015;SDS011;8112;53.592;10.184;2023-03-02T06:24:08;27.77;;;10.20;;
16015;SDS011;8112;53.592;10.184;2023-03-02T06:29:11;17.47;;;8.90;;
16015;SDS011;8112;53.592;10.184;2023-03-02T06:34:13;17.50;;;9.37;;
16015;SDS011;8112;53.592;10.184;2023-03-02T06:39:16;24.83;;;9.53;;
16015;SDS011;8112;53.592;10.184;2023-03-02T06:44:19;27.80;;;9.60;;
16015;SDS011;8112;53.592;10.184;2023-03-02T06:49:21;27.73;;;10.03;;
16015;SDS011;8112;53.592;10.184;2023-03-02T06:54:23;22.30;;;8.93;;
16015;SDS011;8112;53.592;10.184;2023-03-02T06:59:27;24.63;;;8.90;;
16015;SDS011;8112;53.592;10.184;2023-03-02T07:04:28;33.10;;;10.03;;
16015;SDS011;8112;53.592;10.184;2023-03-02T07:09:31;24.97;;;8.77;;
16015;SDS011;8112;53.592;10.184;2023-03-02T07:14:35;23.97;;;8.70;;
16015;SDS011;8112;53.592;10.184;2023-03-02T07:19:36;29.70;;;9.43;;
16015;SDS011;8112;53.592;10.184;2023-03-02T07:24:38;21.03;;;8.83;;
16015;SDS011;8112;53.592;10.184;2023-03-02T07:29:41;22.80;;;9.27;;
16015;SDS011;8112;53.592;10.184;2023-03-02T07:34:43;37.83;;;10.37;;
16015;SDS011;8112;53.592;10.184;2023-03-02T07:39:46;23.33;;;9.73;;
16015;SDS011;8112;53.592;10.184;2023-03-02T07:44:50;19.03;;;9.03;;
16015;SDS011;8112;53.592;10.184;2023-03-02T07:49:53;42.20;;;10.30;;
16015;SDS011;8112;53.592;10.184;2023-03-02T07:54:54;25.87;;;9.60;;
16015;SDS011;8112;53.592;10.184;2023-03-02T07:59:57;30.40;;;9.43;;
16015;SDS011;8112;53.592;10.184;2023-03-02T08:04:59;26.53;;;9.07;;
16015;SDS011;8112;53.592;10.184;2023-03-02T08:10:01;25.47;;;9.60;;
16015;SDS011;8112;53.592;10.184;2023-03-02T08:15:05;30.83;;;9.73;;
16015;SDS011;8112;53.592;10.184;2023-03-02T08:20:08;25.77;;;9.67;;
16015;SDS011;8112;53.592;10.184;2023-03-02T08:25:10;25.27;;;9.83;;
16015;SDS011;8112;53.592;10.184;2023-03-02T08:30:13;29.03;;;9.70;;
16015;SDS011;8112;53.592;10.184;2023-03-02T08:35:15;22.70;;;8.77;;
16015;SDS011;8112;53.592;10.184;2023-03-02T08:40:17;14.60;;;8.60;;
16015;SDS011;8112;53.592;10.184;2023-03-02T08:45:20;17.77;;;8.57;;
16015;SDS011;8112;53.592;10.184;2023-03-02T08:50:22;10.93;;;7.77;;
16015;SDS011;8112;53.592;10.184;2023-03-02T08:55:24;14.77;;;8.43;;
16015;SDS011;8112;53.592;10.184;2023-03-02T09:00:27;15.20;;;8.67;;
16015;SDS011;8112;53.592;10.184;2023-03-02T09:05:28;11.60;;;7.87;;
16015;SDS011;8112;53.592;10.184;2023-03-02T09:10:30;18.13;;;8.63;;
16015;SDS011;8112;53.592;10.184;2023-03-02T09:15:33;19.60;;;8.13;;
16015;SDS011;8112;53.592;10.184;2023-03-02T09:20:35;13.50;;;8.43;;
16015;SDS011;8112;53.592;10.184;2023-03-02T09:25:37;12.13;;;8.47;;
16015;SDS011;8112;53.592;10.184;2023-03-02T09:30:40;12.50;;;8.50;;
16015;SDS011;8112;53.592;10.184;2023-03-02T09:35:42;12.23;;;8.43;;
16015;SDS011;8112;53.592;10.184;2023-03-02T09:40:53;11.83;;;8.23;;
16015;SDS011;8112;53.592;10.184;2023-03-02T09:46:16;13.57;;;8.93;;
16015;SDS011;8112;53.592;10.184;2023-03-02T09:51:29;12.63;;;8.30;;
16015;SDS011;8112;53.592;10.184;2023-03-02T09:56:36;12.97;;;8.23;;
16015;SDS011;8112;53.592;10.184;2023-03-02T10:01:44;11.77;;;8.17;;
16015;SDS011;8112;53.592;10.184;2023-03-02T10:06:51;10.60;;;7.63;;
16015;SDS011;8112;53.592;10.184;2023-03-02T10:12:03;15.00;;;8.83;;
16015;SDS011;8112;53.592;10.184;2023-03-02T10:17:32;12.67;;;8.43;;
16015;SDS011;8112;53.592;10.184;2023-03-02T10:22:43;12.93;;;8.47;;
16015;SDS011;8112;53.592;10.184;2023-03-02T10:27:49;11.67;;;8.13;;
16015;SDS011;8112;53.592;10.184;2023-03-02T10:32:54;11.73;;;8.27;;
16015;SDS011;8112;53.592;10.184;2023-03-02T10:38:05;12.50;;;8.63;;
16015;SDS011;8112;53.592;10.184;2023-03-02T10:43:13;16.07;;;8.47;;
16015;SDS011;8112;53.592;10.184;2023-03-02T10:48:19;12.23;;;7.17;;
16015;SDS011;8112;53.592;10.184;2023-03-02T10:53:21;11.43;;;7.70;;
16015;SDS011;8112;53.592;10.184;2023-03-02T10:58:24;10.87;;;7.17;;
16015;SDS011;8112;53.592;10.184;2023-03-02T11:03:31;9.93;;;7.27;;
16015;SDS011;8112;53.592;10.184;2023-03-02T11:08:34;11.83;;;7.80;;
16015;SDS011;8112;53.592;10.184;2023-03-02T11:13:36;11.33;;;8.33;;
16015;SDS011;8112;53.592;10.184;2023-03-02T11:18:41;12.73;;;8.80;;
16015;SDS011;8112;53.592;10.184;2023-03-02T11:23:48;11.77;;;8.63;;
16015;SDS011;8112;53.592;10.184;2023-03-02T11:28:58;15.63;;;9.33;;
16015;SDS011;8112;53.592;10.184;2023-03-02T11:34:10;10.37;;;7.60;;
16015;SDS011;8112;53.592;10.184;2023-03-02T11:39:24;11.40;;;8.20;;
16015;SDS011;8112;53.592;10.184;2023-03-02T11:44:31;15.03;;;9.33;;
16015;SDS011;8112;53.592;10.184;2023-03-02T11:49:37;13.77;;;9.13;;
16015;SDS011;8112;53.592;10.184;2023-03-02T11:54:43;12.50;;;8.43;;
16015;SDS011;8112;53.592;10.184;2023-03-02T11:59:47;13.07;;;8.57;;
16015;SDS011;8112;53.592;10.184;2023-03-02T12:05:01;15.17;;;9.60;;
16015;SDS011;8112;53.592;10.184;2023-03-02T12:10:05;15.93;;;10.27;;
16015;SDS011;8112;53.592;10.184;2023-03-02T12:20:56;12.57;;;8.03;;
16015;SDS011;8112;53.592;10.184;2023-03-02T12:26:01;15.13;;;9.50;;
16015;SDS011;8112;53.592;10.184;2023-03-02T12:31:09;12.80;;;9.00;;
16015;SDS011;8112;53.592;10.184;2023-03-02T12:36:16;12.90;;;8.67;;
16015;SDS011;8112;53.592;10.184;2023-03-02T12:41:31;10.60;;;7.30;;
16015;SDS011;8112;53.592;10.184;2023-03-02T12:46:42;10.00;;;7.30;;
16015;SDS011;8112;53.592;10.184;2023-03-02T12:51:48;11.83;;;7.40;;
16015;SDS011;8112;53.592;10.184;2023-03-02T12:57:02;10.60;;;7.40;;
16015;SDS011;8112;53.592;10.184;2023-03-02T13:02:12;9.17;;;7.13;;
16015;SDS011;8112;53.592;10.184;2023-03-02T13:07:18;10.83;;;6.83;;
16015;SDS011;8112;53.592;10.184;2023-03-02T13:12:23;8.23;;;6.23;;
16015;SDS011;8112;53.592;10.184;2023-03-02T13:17:27;10.30;;;6.57;;
16015;SDS011;8112;53.592;10.184;2023-03-02T13:22:32;10.37;;;6.60;;
16015;SDS011;8112;53.592;10.184;2023-03-02T13:27:33;9.80;;;6.70;;
16015;SDS011;8112;53.592;10.184;2023-03-02T13:32:37;10.37;;;7.30;;
16015;SDS011;8112;53.592;10.184;2023-03-02T13:37:42;13.23;;;8.30;;
16015;SDS011;8112;53.592;10.184;2023-03-02T13:42:44;15.87;;;8.93;;
16015;SDS011;8112;53.592;10.184;2023-03-02T13:47:46;12.37;;;8.20;;
16015;SDS011;8112;53.592;10.184;2023-03-02T13:52:49;14.13;;;8.90;;
16015;SDS011;8112;53.592;10.184;2023-03-02T13:57:52;13.43;;;8.10;;
16015;SDS011;8112;53.592;10.184;2023-03-02T14:02:55;9.17;;;6.73;;
16015;SDS011;8112;53.592;10.184;2023-03-02T14:07:58;7.37;;;5.77;;
16015;SDS011;8112;53.592;10.184;2023-03-02T14:13:02;10.13;;;6.23;;
16015;SDS011;8112;53.592;10.184;2023-03-02T14:18:08;9.17;;;6.23;;
16015;SDS011;8112;53.592;10.184;2023-03-02T14:23:24;10.47;;;6.50;;
16015;SDS011;8112;53.592;10.184;2023-03-02T14:28:27;10.23;;;6.90;;
16015;SDS011;8112;53.592;10.184;2023-03-02T14:33:31;9.33;;;6.90;;
16015;SDS011;8112;53.592;10.184;2023-03-02T14:38:35;9.13;;;6.23;;
16015;SDS011;8112;53.592;10.184;2023-03-02T14:43:36;10.53;;;6.40;;
16015;SDS011;8112;53.592;10.184;2023-03-02T14:48:38;10.67;;;6.80;;
16015;SDS011;8112;53.592;10.184;2023-03-02T14:53:41;10.20;;;6.60;;
16015;SDS011;8112;53.592;10.184;2023-03-02T14:58:43;8.83;;;6.57;;
16015;SDS011;8112;53.592;10.184;2023-03-02T15:03:44;10.10;;;6.40;;
16015;SDS011;8112;53.592;10.184;2023-03-02T15:08:48;9.73;;;5.57;;
16015;SDS011;8112;53.592;10.184;2023-03-02T15:13:49;9.13;;;6.20;;
16015;SDS011;8112;53.592;10.184;2023-03-02T15:18:51;7.73;;;5.40;;
16015;SDS011;8112;53.592;10.184;2023-03-02T15:23:55;6.60;;;4.60;;
16015;SDS011;8112;53.592;10.184;2023-03-02T15:28:56;7.43;;;5.37;;
16015;SDS011;8112;53.592;10.184;2023-03-02T15:33:58;6.97;;;4.87;;
16015;SDS011;8112;53.592;10.184;2023-03-02T15:39:01;6.97;;;4.97;;
16015;SDS011;8112;53.592;10.184;2023-03-02T15:44:03;8.17;;;5.57;;
16015;SDS011;8112;53.592;10.184;2023-03-02T15:49:05;8.00;;;5.90;;
16015;SDS011;8112;53.592;10.184;2023-03-02T15:54:08;9.03;;;5.63;;
16015;SDS011;8112;53.592;10.184;2023-03-02T15:59:11;8.13;;;5.80;;
16015;SDS011;8112;53.592;10.184;2023-03-02T16:04:20;9.47;;;6.00;;
16015;SDS011;8112;53.592;10.184;2023-03-02T16:09:24;9.77;;;6.00;;
16015;SDS011;8112;53.592;10.184;2023-03-02T16:14:27;12.30;;;7.60;;
16015;SDS011;8112;53.592;10.184;2023-03-02T16:19:29;11.83;;;7.90;;
16015;SDS011;8112;53.592;10.184;2023-03-02T16:24:32;11.23;;;7.97;;
16015;SDS011;8112;53.592;10.184;2023-03-02T16:29:34;11.17;;;7.87;;
16015;SDS011;8112;53.592;10.184;2023-03-02T16:34:36;16.60;;;10.20;;
16015;SDS011;8112;53.592;10.184;2023-03-02T16:39:39;12.93;;;8.30;;
16015;SDS011;8112;53.592;10.184;2023-03-02T16:44:41;14.07;;;9.40;;
16015;SDS011;8112;53.592;10.184;2023-03-02T16:49:44;14.57;;;9.33;;
16015;SDS011;8112;53.592;10.184;2023-03-02T16:54:48;18.60;;;11.53;;
16015;SDS011;8112;53.592;10.184;2023-03-02T16:59:49;18.47;;;11.20;;
16015;SDS011;8112;53.592;10.184;2023-03-02T17:04:51;15.57;;;10.50;;
16015;SDS011;8112;53.592;10.184;2023-03-02T17:09:54;19.47;;;11.63;;
16015;SDS011;8112;53.592;10.184;2023-03-02T17:14:55;18.57;;;11.53;;
16015;SDS011;8112;53.592;10.184;2023-03-02T17:19:57;17.07;;;11.97;;
16015;SDS011;8112;53.592;10.184;2023-03-02T17:25:00;16.87;;;12.23;;
16015;SDS011;8112;53.592;10.184;2023-03-02T17:30:02;16.60;;;12.17;;
16015;SDS011;8112;53.592;10.184;2023-03-02T17:35:05;15.73;;;11.03;;
16015;SDS011;8112;53.592;10.184;2023-03-02T17:40:11;18.10;;;11.80;;
16015;SDS011;8112;53.592;10.184;2023-03-02T17:45:19;17.83;;;12.00;;
16015;SDS011;8112;53.592;10.184;2023-03-02T17:50:22;16.27;;;11.40;;
16015;SDS011;8112;53.592;10.184;2023-03-02T17:55:26;22.00;;;13.50;;
16015;SDS011;8112;53.592;10.184;2023-03-02T18:00:28;19.33;;;12.83;;
16015;SDS011;8112;53.592;10.184;2023-03-02T18:05:29;18.47;;;12.37;;
16015;SDS011;8112;53.592;10.184;2023-03-02T18:10:32;18.13;;;13.13;;
16015;SDS011;8112;53.592;10.184;2023-03-02T18:15:34;20.33;;;13.83;;
16015;SDS011;8112;53.592;10.184;2023-03-02T18:20:36;17.93;;;12.67;;
16015;SDS011;8112;53.592;10.184;2023-03-02T18:25:39;19.93;;;13.43;;
16015;SDS011;8112;53.592;10.184;2023-03-02T18:30:41;17.87;;;12.87;;
16015;SDS011;8112;53.592;10.184;2023-03-02T18:35:43;19.50;;;13.27;;
16015;SDS011;8112;53.592;10.184;2023-03-02T18:40:46;17.80;;;13.23;;
16015;SDS011;8112;53.592;10.184;2023-03-02T18:45:47;18.53;;;12.33;;
16015;SDS011;8112;53.592;10.184;2023-03-02T18:50:52;18.07;;;12.57;;
16015;SDS011;8112;53.592;10.184;2023-03-02T18:55:55;20.93;;;13.37;;
16015;SDS011;8112;53.592;10.184;2023-03-02T19:00:57;19.23;;;13.17;;
16015;SDS011;8112;53.592;10.184;2023-03-02T19:05:59;18.83;;;12.17;;
16015;SDS011;8112;53.592;10.184;2023-03-02T19:11:03;19.17;;;12.47;;
16015;SDS011;8112;53.592;10.184;2023-03-02T19:16:06;17.43;;;12.10;;
16015;SDS011;8112;53.592;10.184;2023-03-02T19:21:08;17.57;;;11.77;;
16015;SDS011;8112;53.592;10.184;2023-03-02T19:26:11;17.63;;;13.27;;
16015;SDS011;8112;53.592;10.184;2023-03-02T19:31:14;17.97;;;12.77;;
16015;SDS011;8112;53.592;10.184;2023-03-02T19:36:16;20.60;;;13.27;;
16015;SDS011;8112;53.592;10.184;2023-03-02T19:41:19;22.07;;;14.33;;
16015;SDS011;8112;53.592;10.184;2023-03-02T19:46:21;18.73;;;12.87;;
16015;SDS011;8112;53.592;10.184;2023-03-02T19:51:23;18.73;;;13.43;;
16015;SDS011;8112;53.592;10.184;2023-03-02T19:56:26;21.27;;;13.63;;
16015;SDS011;8112;53.592;10.184;2023-03-02T20:01:32;20.87;;;14.07;;
16015;SDS011;8112;53.592;10.184;2023-03-02T20:06:33;19.27;;;13.13;;
16015;SDS011;8112;53.592;10.184;2023-03-02T20:11:37;23.97;;;16.53;;
16015;SDS011;8112;53.592;10.184;2023-03-02T20:16:39;20.47;;;13.80;;
16015;SDS011;8112;53.592;10.184;2023-03-02T20:21:41;21.00;;;13.60;;
16015;SDS011;8112;53.592;10.184;2023-03-02T20:26:44;17.60;;;12.73;;
16015;SDS011;8112;53.592;10.184;2023-03-02T20:31:46;20.13;;;13.37;;
16015;SDS011;8112;53.592;10.184;2023-03-02T20:36:47;21.33;;;13.77;;
16015;SDS011;8112;53.592;10.184;2023-03-02T20:41:51;20.13;;;14.30;;
16015;SDS011;8112;53.592;10.184;2023-03-02T20:46:55;20.30;;;14.57;;
16015;SDS011;8112;53.592;10.184;2023-03-02T20:51:58;21.67;;;14.77;;
16015;SDS011;8112;53.592;10.184;2023-03-02T20:57:02;28.20;;;18.47;;
16015;SDS011;8112;53.592;10.184;2023-03-02T21:02:05;32.47;;;21.50;;
16015;SDS011;8112;53.592;10.184;2023-03-02T21:07:06;35.67;;;22.97;;
16015;SDS011;8112;53.592;10.184;2023-03-02T21:12:10;32.43;;;21.07;;
16015;SDS011;8112;53.592;10.184;2023-03-02T21:17:12;30.47;;;20.20;;
16015;SDS011;8112;53.592;10.184;2023-03-02T21:22:15;29.30;;;20.80;;
16015;SDS011;8112;53.592;10.184;2023-03-02T21:27:21;27.90;;;18.63;;
16015;SDS011;8112;53.592;10.184;2023-03-02T21:32:22;28.10;;;19.27;;
16015;SDS011;8112;53.592;10.184;2023-03-02T21:37:24;26.67;;;18.47;;
16015;SDS011;8112;53.592;10.184;2023-03-02T21:42:28;28.97;;;19.57;;
16015;SDS011;8112;53.592;10.184;2023-03-02T21:47:30;32.77;;;20.27;;
16015;SDS011;8112;53.592;10.184;2023-03-02T21:52:31;28.90;;;19.93;;
16015;SDS011;8112;53.592;10.184;2023-03-02T21:57:34;31.47;;;22.27;;
16015;SDS011;8112;53.592;10.184;2023-03-02T22:02:36;38.13;;;24.43;;
16015;SDS011;8112;53.592;10.184;2023-03-02T22:07:38;35.97;;;23.83;;
16015;SDS011;8112;53.592;10.184;2023-03-02T22:12:41;37.23;;;23.50;;
16015;SDS011;8112;53.592;10.184;2023-03-02T22:17:43;33.30;;;22.70;;
16015;SDS011;8112;53.592;10.184;2023-03-02T22:22:45;33.87;;;22.70;;
16015;SDS011;8112;53.592;10.184;2023-03-02T22:27:50;34.00;;;23.23;;
16015;SDS011;8112;53.592;10.184;2023-03-02T22:32:52;30.30;;;20.30;;
16015;SDS011;8112;53.592;10.184;2023-03-02T22:37:55;29.83;;;19.80;;
16015;SDS011;8112;53.592;10.184;2023-03-02T22:43:10;32.90;;;20.73;;
16015;SDS011;8112;53.592;10.184;2023-03-02T22:48:15;29.80;;;20.67;;
16015;SDS011;8112;53.592;10.184;2023-03-02T22:53:21;31.30;;;20.37;;
16015;SDS011;8112;53.592;10.184;2023-03-02T22:58:31;27.97;;;19.70;;
16015;SDS011;8112;53.592;10.184;2023-03-02T23:03:43;31.90;;;19.27;;
16015;SDS011;8112;53.592;10.184;2023-03-02T23:08:46;32.00;;;19.80;;
16015;SDS011;8112;53.592;10.184;2023-03-02T23:13:49;36.40;;;20.90;;
16015;SDS011;8112;53.592;10.184;2023-03-02T23:18:53;34.23;;;19.67;;
16015;SDS011;8112;53.592;10.184;2023-03-02T23:23:58;35.70;;;20.57;;
16015;SDS011;8112;53.592;10.184;2023-03-02T23:29:02;35.97;;;22.07;;
16015;SDS011;8112;53.592;10.184;2023-03-02T23:34:04;37.27;;;20.40;;
16015;SDS011;8112;53.592;10.184;2023-03-02T23:39:06;35.17;;;20.10;;
16015;SDS011;8112;53.592;10.184;2023-03-02T23:44:10;36.30;;;21.73;;
16015;SDS011;8112;53.592;10.184;2023-03-02T23:49:12;33.57;;;19.83;;
16015;SDS011;8112;53.592;10.184;2023-03-02T23:54:14;34.50;;;21.20;;
16015;SDS011;8112;53.592;10.184;2023-03-02T23:59:17;37.93;;;21.27;;
